Ephrata, Washington
Current Conditions -  °F | °C
As of 1:53 AM on Thursday 23 Oct 2014 (Local Time) from KEPH Reporting Station
Overcast Overcast  
Wind Chill: 12°   Ceiling: 10000
Heat Index: 12°   Visibility: 10mi
Dew Point:   Wind: 12mph
Humidity: 83%   Direction: 200°SSW
Pressure: 29.71"   Gusts: NA
Location:  47.32°N, 119.55°W
Report Text: KEPH 230853Z AUTO 20010KT 10SM OVC100 12/09 A2971 RMK AO2 SLP059 60000 T01170089 53015
Loading
Personal Weather Stations






























Interactive Weather Map
Tropical Storm Tracking
New forecast layout! Learn more

10-Day Weather Forecast

Advertisements
Track Severe Weather on mobile